Time;durP1;ratioP1;P1;durP2;ratioP2;P2;SDS_P1;SDS_P2;PMS_P1;PMS_P2;Temp;Humidity;BMP_temperature;BMP_pressure;BME280_temperature;BME280_humidity;BME280_pressure;Samples;Min_cycle;Max_cycle;Signal;HPM_P1;HPM_P2
2022/03/12 00:01:05;;;;;;;9.97;5.60;;;8.40;99.90;;;;;;4982747;28;20259;-61
2022/03/12 00:03:33;;;;;;;7.80;5.30;;;8.40;99.90;;;;;;4994988;28;20202;-61
2022/03/12 00:06:02;;;;;;;7.60;5.67;;;8.30;99.90;;;;;;4979243;28;20198;-61
2022/03/12 00:08:51;;;;;;;10.07;5.80;;;8.30;99.90;;;;;;4985619;28;20213;-62
2022/03/12 00:11:24;;;;;;;8.70;5.50;;;8.30;99.90;;;;;;4988574;28;20649;-61
2022/03/12 00:13:52;;;;;;;10.03;6.40;;;8.20;99.90;;;;;;4997687;28;20197;-61
2022/03/12 00:16:24;;;;;;;8.33;5.40;;;8.20;99.90;;;;;;4981012;28;20677;-60
2022/03/12 00:19:00;;;;;;;7.87;5.30;;;8.00;99.90;;;;;;4979000;28;20201;-60
2022/03/12 00:21:35;;;;;;;6.87;5.67;;;8.00;99.90;;;;;;4980867;28;20221;-60
2022/03/12 00:24:03;;;;;;;12.00;5.43;;;8.00;99.90;;;;;;4979903;28;20226;-61
2022/03/12 00:26:33;;;;;;;8.67;5.93;;;8.10;99.90;;;;;;4987009;28;20277;-61
2022/03/12 00:29:00;;;;;;;9.10;5.73;;;8.10;99.90;;;;;;4980299;28;20201;-61
2022/03/12 00:31:28;;;;;;;8.93;6.00;;;8.10;99.90;;;;;;4996714;28;20226;-61
2022/03/12 00:33:56;;;;;;;12.47;5.60;;;8.00;99.90;;;;;;4981071;28;20198;-61
2022/03/12 00:36:25;;;;;;;11.40;6.00;;;8.00;99.90;;;;;;4984014;28;20198;-61
2022/03/12 00:38:52;;;;;;;9.57;5.90;;;7.90;99.90;;;;;;4980906;28;20605;-62
2022/03/12 00:41:19;;;;;;;9.50;5.80;;;7.90;99.90;;;;;;4980898;28;20361;-61
2022/03/12 00:43:48;;;;;;;9.50;5.40;;;7.90;99.90;;;;;;4979077;28;20206;-62
2022/03/12 00:46:15;;;;;;;7.53;5.57;;;7.90;99.90;;;;;;4994365;28;20225;-60
2022/03/12 00:48:42;;;;;;;9.60;6.10;;;7.90;99.90;;;;;;4996573;28;20622;-60
2022/03/12 00:51:12;;;;;;;8.17;5.10;;;8.00;99.90;;;;;;4979353;28;20676;-61
2022/03/12 00:53:41;;;;;;;6.97;5.30;;;7.90;99.90;;;;;;4981314;28;20208;-62
2022/03/12 00:56:09;;;;;;;6.57;5.20;;;7.90;99.90;;;;;;4989808;28;20233;-62
2022/03/12 00:58:37;;;;;;;8.70;5.80;;;7.90;99.90;;;;;;4998492;28;20205;-62
2022/03/12 01:01:05;;;;;;;8.47;5.77;;;7.90;99.90;;;;;;5000899;28;20253;-61
2022/03/12 01:03:33;;;;;;;6.93;5.03;;;8.00;99.90;;;;;;4984364;28;20197;-61
2022/03/12 01:06:02;;;;;;;8.87;5.30;;;8.20;99.90;;;;;;4984803;28;20225;-60
2022/03/12 01:08:36;;;;;;;9.10;5.37;;;8.10;99.90;;;;;;4983094;28;20205;-60
2022/03/12 01:11:10;;;;;;;8.37;5.40;;;8.10;99.90;;;;;;4983493;28;20609;-62
2022/03/12 01:13:38;;;;;;;6.73;5.53;;;8.00;99.90;;;;;;4972359;28;20627;-62
2022/03/12 01:16:06;;;;;;;6.83;4.97;;;8.00;99.90;;;;;;4999199;28;20193;-62
2022/03/12 01:18:38;;;;;;;8.63;5.60;;;8.00;99.90;;;;;;4984416;28;20621;-63
2022/03/12 01:21:11;;;;;;;8.90;4.90;;;8.00;99.90;;;;;;4984146;28;20201;-62
2022/03/12 01:23:42;;;;;;;9.23;6.07;;;8.00;99.90;;;;;;4983660;28;20619;-62
2022/03/12 01:26:10;;;;;;;7.50;5.80;;;8.00;99.90;;;;;;4982901;28;20236;-61
2022/03/12 01:28:40;;;;;;;8.33;5.00;;;8.00;99.90;;;;;;4999960;28;20232;-61
2022/03/12 01:31:08;;;;;;;12.67;5.37;;;8.00;99.90;;;;;;4988724;28;20221;-62
2022/03/12 01:33:35;;;;;;;7.93;5.43;;;8.00;99.90;;;;;;4990389;28;20328;-63
2022/03/12 01:36:02;;;;;;;6.70;5.13;;;8.00;99.90;;;;;;4985347;28;20276;-61
2022/03/12 01:39:00;;;;;;;7.30;5.30;;;8.00;99.90;;;;;;4987865;28;20579;-62
2022/03/12 01:41:29;;;;;;;8.93;5.43;;;8.10;99.90;;;;;;4980213;28;20647;-61
2022/03/12 01:44:02;;;;;;;8.37;5.70;;;8.00;99.90;;;;;;4990573;28;20198;-62
2022/03/12 01:46:35;;;;;;;8.10;5.40;;;8.00;99.90;;;;;;4983995;28;20289;-62
2022/03/12 01:49:09;;;;;;;6.07;5.10;;;8.00;99.90;;;;;;4999159;28;20634;-62
2022/03/12 01:51:40;;;;;;;7.93;5.43;;;8.00;99.90;;;;;;4998209;28;20209;-61
2022/03/12 01:54:07;;;;;;;10.00;5.40;;;7.90;99.90;;;;;;4989635;28;20194;-61
2022/03/12 01:56:38;;;;;;;6.20;5.33;;;7.80;99.90;;;;;;4997849;28;20194;-61
2022/03/12 01:59:09;;;;;;;9.07;5.67;;;7.80;99.90;;;;;;4984133;28;20187;-61
2022/03/12 02:01:38;;;;;;;7.07;5.43;;;7.80;99.90;;;;;;4984133;28;20194;-61
2022/03/12 02:04:11;;;;;;;7.47;5.53;;;7.80;99.90;;;;;;4997573;28;20677;-61
2022/03/12 02:06:42;;;;;;;9.83;5.63;;;7.80;99.90;;;;;;4979180;28;20284;-61
2022/03/12 02:09:14;;;;;;;8.30;5.70;;;7.90;99.90;;;;;;4981945;28;20232;-61
2022/03/12 02:11:43;;;;;;;9.20;5.30;;;7.80;99.90;;;;;;5000465;28;20819;-62
2022/03/12 02:14:12;;;;;;;7.70;5.90;;;7.70;99.90;;;;;;4984531;28;20552;-62
2022/03/12 02:16:48;;;;;;;9.23;5.87;;;7.80;99.90;;;;;;4997134;28;20237;-61
2022/03/12 02:19:17;;;;;;;9.27;5.17;;;7.70;99.90;;;;;;4999608;28;20217;-61
2022/03/12 02:21:56;;;;;;;10.70;5.20;;;7.80;99.90;;;;;;4997703;28;20213;-60
2022/03/12 02:24:29;;;;;;;8.13;4.97;;;7.80;99.90;;;;;;4983582;28;20218;-62
2022/03/12 02:26:58;;;;;;;7.47;4.97;;;7.90;99.90;;;;;;4997795;28;20711;-61
2022/03/12 02:29:26;;;;;;;7.77;5.47;;;7.90;99.90;;;;;;4997346;28;20689;-61
2022/03/12 02:32:06;;;;;;;9.60;5.70;;;7.90;99.90;;;;;;5015185;28;20657;-61
2022/03/12 02:34:41;;;;;;;7.40;5.57;;;7.90;99.90;;;;;;4982904;28;20217;-60
2022/03/12 02:37:08;;;;;;;7.13;5.30;;;8.10;99.90;;;;;;4979159;28;20919;-61
2022/03/12 02:39:39;;;;;;;7.27;4.97;;;8.00;99.90;;;;;;4974245;28;20255;-61
2022/03/12 02:42:07;;;;;;;7.57;5.30;;;8.00;99.90;;;;;;4996328;28;20634;-61
2022/03/12 02:44:35;;;;;;;7.33;5.60;;;8.00;99.90;;;;;;4997027;28;20581;-62
2022/03/12 02:47:13;;;;;;;7.20;5.37;;;8.00;99.90;;;;;;4985821;28;20229;-63
2022/03/12 02:50:03;;;;;;;8.40;4.90;;;8.00;99.90;;;;;;4996027;28;20209;-63
2022/03/12 02:52:31;;;;;;;8.13;5.30;;;8.00;99.90;;;;;;4986221;28;20202;-62
2022/03/12 02:55:00;;;;;;;6.53;4.83;;;7.90;99.90;;;;;;4988371;28;20205;-63
2022/03/12 02:57:29;;;;;;;8.50;5.13;;;7.90;99.90;;;;;;4981856;28;20196;-63
2022/03/12 03:00:06;;;;;;;8.47;5.07;;;7.90;99.90;;;;;;4997206;28;20304;-63
2022/03/12 03:02:40;;;;;;;9.30;5.37;;;7.90;99.90;;;;;;4997768;28;20345;-63
2022/03/12 03:05:18;;;;;;;7.20;5.33;;;7.80;99.90;;;;;;4997224;28;20205;-63
2022/03/12 03:07:54;;;;;;;7.73;4.90;;;7.90;99.90;;;;;;4988788;28;20958;-62
2022/03/12 03:10:31;;;;;;;7.30;5.40;;;7.80;99.90;;;;;;4987899;28;20265;-63
2022/03/12 03:12:59;;;;;;;6.90;5.23;;;7.80;99.90;;;;;;5013231;28;20249;-62
2022/03/12 03:15:28;;;;;;;6.60;5.03;;;7.70;99.90;;;;;;4986565;28;20199;-63
2022/03/12 03:17:56;;;;;;;8.23;5.30;;;7.70;99.90;;;;;;4997589;28;20253;-62
2022/03/12 03:20:23;;;;;;;6.93;5.27;;;7.80;99.90;;;;;;4982662;28;20190;-62
2022/03/12 03:22:50;;;;;;;10.80;5.70;;;7.80;99.90;;;;;;4997806;28;20308;-63
2022/03/12 03:25:19;;;;;;;7.50;5.43;;;7.70;99.90;;;;;;4996069;28;20208;-62
2022/03/12 03:27:47;;;;;;;8.97;5.50;;;7.70;99.90;;;;;;4997612;28;20564;-62
2022/03/12 03:30:14;;;;;;;11.97;5.40;;;7.70;99.90;;;;;;4981359;28;20202;-63
2022/03/12 03:32:44;;;;;;;7.53;5.43;;;7.70;99.90;;;;;;4996877;28;20218;-63
2022/03/12 03:35:11;;;;;;;7.33;5.57;;;7.70;99.90;;;;;;4982183;28;20823;-63
2022/03/12 03:37:37;;;;;;;7.57;5.57;;;7.60;99.90;;;;;;4986815;28;20847;-63
2022/03/12 03:40:07;;;;;;;7.90;5.83;;;7.60;99.90;;;;;;4978556;28;20198;-63
2022/03/12 03:42:34;;;;;;;9.97;6.30;;;7.60;99.90;;;;;;4973353;28;20380;-63
2022/03/12 03:45:02;;;;;;;8.33;6.30;;;7.70;99.90;;;;;;4993389;28;20216;-63
2022/03/12 03:47:29;;;;;;;10.93;6.43;;;7.60;99.90;;;;;;4985058;28;20577;-62
2022/03/12 03:49:59;;;;;;;8.07;5.80;;;7.60;99.90;;;;;;4996160;28;20197;-63
2022/03/12 03:52:26;;;;;;;9.23;5.73;;;7.60;99.90;;;;;;4982858;28;20213;-62
2022/03/12 03:54:53;;;;;;;10.17;6.13;;;7.50;99.90;;;;;;4997890;28;20201;-62
2022/03/12 03:57:21;;;;;;;7.60;5.70;;;7.50;99.90;;;;;;4997662;28;20638;-62
2022/03/12 03:59:48;;;;;;;9.00;6.10;;;7.50;99.90;;;;;;4985830;28;20296;-62
2022/03/12 04:02:18;;;;;;;9.77;5.73;;;7.50;99.90;;;;;;4986156;28;20593;-62
2022/03/12 04:04:45;;;;;;;8.50;6.67;;;7.40;99.90;;;;;;4984664;28;20672;-61
2022/03/12 04:07:13;;;;;;;9.00;6.53;;;7.70;99.90;;;;;;4979447;28;20276;-61
2022/03/12 04:09:40;;;;;;;8.47;6.50;;;7.60;99.90;;;;;;4980516;28;20197;-63
2022/03/12 04:12:10;;;;;;;9.03;6.17;;;7.60;99.90;;;;;;4997839;28;20275;-62
2022/03/12 04:14:37;;;;;;;9.60;6.07;;;7.50;99.90;;;;;;4995761;28;20212;-63
2022/03/12 04:17:05;;;;;;;12.93;6.83;;;7.50;99.90;;;;;;4980129;28;20249;-62
2022/03/12 04:19:34;;;;;;;15.50;7.60;;;7.50;99.90;;;;;;4980782;28;20272;-63
2022/03/12 04:22:03;;;;;;;7.43;6.30;;;7.50;99.90;;;;;;4980595;28;20214;-63
2022/03/12 04:24:30;;;;;;;10.27;6.43;;;7.70;99.90;;;;;;4980810;28;20630;-63
2022/03/12 04:26:57;;;;;;;9.77;6.90;;;7.80;99.90;;;;;;4979367;28;20198;-63
2022/03/12 04:29:29;;;;;;;12.87;6.67;;;7.80;99.90;;;;;;4985005;28;20213;-63
2022/03/12 04:31:56;;;;;;;11.50;6.83;;;7.90;99.90;;;;;;4979871;28;20218;-63
2022/03/12 04:34:23;;;;;;;10.33;6.83;;;7.90;99.90;;;;;;4995465;28;20205;-63
2022/03/12 04:36:50;;;;;;;10.83;7.20;;;7.90;99.90;;;;;;4985470;28;20225;-63
2022/03/12 04:39:17;;;;;;;13.47;6.30;;;7.90;99.90;;;;;;4987463;28;20202;-62
2022/03/12 04:41:43;;;;;;;7.40;6.20;;;8.00;99.90;;;;;;4980060;28;20264;-63
2022/03/12 04:44:13;;;;;;;9.73;6.67;;;8.00;99.90;;;;;;4975365;28;20259;-63
2022/03/12 04:46:40;;;;;;;8.87;6.53;;;8.00;99.90;;;;;;4972676;28;20276;-62
2022/03/12 04:49:07;;;;;;;9.50;6.23;;;8.00;99.90;;;;;;4969724;28;20677;-61
2022/03/12 04:51:34;;;;;;;9.03;6.50;;;8.00;99.90;;;;;;4995291;28;20221;-62
2022/03/12 04:54:06;;;;;;;9.80;6.47;;;7.90;99.90;;;;;;4995221;28;20197;-62
2022/03/12 04:56:34;;;;;;;10.07;6.53;;;8.00;99.90;;;;;;4984142;28;20643;-62
2022/03/12 04:59:03;;;;;;;9.73;6.20;;;7.90;99.90;;;;;;4978818;28;20232;-61
2022/03/12 05:01:32;;;;;;;9.50;6.30;;;7.90;99.90;;;;;;4979406;28;20548;-61
2022/03/12 05:03:59;;;;;;;10.50;6.43;;;7.90;99.90;;;;;;4995252;28;20309;-62
2022/03/12 05:06:28;;;;;;;10.30;6.37;;;7.90;99.90;;;;;;4979894;28;20205;-62
2022/03/12 05:08:55;;;;;;;9.83;6.67;;;7.90;99.90;;;;;;4979497;28;20198;-61
2022/03/12 05:11:25;;;;;;;8.70;6.23;;;7.90;99.90;;;;;;4996768;28;20312;-62
2022/03/12 05:13:53;;;;;;;8.73;5.80;;;7.80;99.90;;;;;;4994841;28;20289;-61
2022/03/12 05:16:21;;;;;;;11.30;5.73;;;7.80;99.90;;;;;;4980212;28;20201;-62
2022/03/12 05:18:48;;;;;;;10.57;6.43;;;7.70;99.90;;;;;;4980244;28;20284;-62
2022/03/12 05:21:15;;;;;;;7.97;6.67;;;7.70;99.90;;;;;;4996507;28;20239;-61
2022/03/12 05:23:42;;;;;;;9.30;6.33;;;7.70;99.90;;;;;;4980136;28;20246;-63
2022/03/12 05:26:09;;;;;;;10.43;6.13;;;7.70;99.90;;;;;;4974055;28;20194;-62
2022/03/12 05:28:41;;;;;;;9.67;6.50;;;7.70;99.90;;;;;;4978697;28;20269;-62
2022/03/12 05:31:13;;;;;;;8.23;6.37;;;7.60;99.90;;;;;;4980604;28;20264;-62
2022/03/12 05:33:43;;;;;;;8.03;6.27;;;7.60;99.90;;;;;;4979994;28;20189;-61
2022/03/12 05:36:10;;;;;;;9.10;6.60;;;7.50;99.90;;;;;;4985021;28;20252;-63
2022/03/12 05:38:37;;;;;;;10.83;6.10;;;7.30;99.90;;;;;;4984019;28;20202;-62
2022/03/12 05:41:11;;;;;;;10.20;6.47;;;7.30;99.90;;;;;;4983197;28;20974;-62
2022/03/12 05:43:46;;;;;;;13.03;6.70;;;7.30;99.90;;;;;;4983606;28;20623;-61
2022/03/12 05:46:21;;;;;;;11.40;6.80;;;7.20;99.90;;;;;;4983187;28;20652;-61
2022/03/12 05:48:49;;;;;;;8.77;6.20;;;7.10;99.90;;;;;;4979888;28;20194;-61
2022/03/12 05:51:18;;;;;;;12.80;6.77;;;7.00;99.90;;;;;;4983887;28;20620;-63
2022/03/12 05:53:47;;;;;;;12.90;6.53;;;7.20;99.90;;;;;;4998078;28;20198;-63
2022/03/12 05:56:14;;;;;;;10.83;7.17;;;7.10;99.90;;;;;;4988711;28;20197;-62
2022/03/12 05:58:41;;;;;;;11.53;6.50;;;7.10;99.90;;;;;;4988486;28;20293;-62
2022/03/12 06:01:08;;;;;;;16.63;6.83;;;7.20;99.90;;;;;;4989621;28;20221;-62
2022/03/12 06:03:36;;;;;;;9.73;6.27;;;7.10;99.90;;;;;;4998000;28;20210;-63
2022/03/12 06:06:03;;;;;;;13.33;7.13;;;7.20;99.90;;;;;;4983211;28;20689;-62
2022/03/12 06:08:33;;;;;;;16.43;7.47;;;7.10;99.90;;;;;;4983137;28;20209;-61
2022/03/12 06:11:01;;;;;;;12.60;8.27;;;7.10;99.90;;;;;;4981012;28;20212;-62
2022/03/12 06:13:30;;;;;;;8.07;6.20;;;7.00;99.90;;;;;;4989890;28;20661;-62
2022/03/12 06:15:58;;;;;;;14.53;6.80;;;7.00;99.90;;;;;;4982319;28;20610;-62
2022/03/12 06:18:38;;;;;;;17.30;6.90;;;7.00;99.90;;;;;;4980813;28;20210;-62
2022/03/12 06:21:06;;;;;;;9.00;6.60;;;6.90;99.90;;;;;;4988213;28;20252;-62
2022/03/12 06:23:34;;;;;;;9.93;6.10;;;6.90;99.90;;;;;;4997565;28;20217;-62
2022/03/12 06:26:04;;;;;;;9.73;6.43;;;6.90;99.90;;;;;;4997625;28;20278;-62
2022/03/12 06:28:33;;;;;;;9.57;6.10;;;6.90;99.90;;;;;;4999523;28;20202;-62
2022/03/12 06:31:00;;;;;;;13.20;7.00;;;6.90;99.90;;;;;;4981243;28;20221;-62
2022/03/12 06:33:31;;;;;;;14.83;6.97;;;6.80;99.90;;;;;;4998018;28;20214;-62
2022/03/12 06:35:59;;;;;;;11.60;7.00;;;6.90;99.90;;;;;;4999410;28;20248;-62
2022/03/12 06:38:28;;;;;;;12.53;7.13;;;7.20;99.90;;;;;;4997737;28;20433;-62
2022/03/12 06:40:58;;;;;;;9.43;6.30;;;7.40;99.90;;;;;;4988062;28;20231;-62
2022/03/12 06:43:29;;;;;;;9.13;6.33;;;7.40;99.90;;;;;;4983063;28;20198;-62
2022/03/12 06:46:02;;;;;;;9.07;6.57;;;7.40;99.90;;;;;;4982562;28;20737;-62
2022/03/12 06:48:31;;;;;;;10.70;7.07;;;7.40;99.90;;;;;;4980617;28;20217;-62
2022/03/12 06:50:58;;;;;;;10.67;6.40;;;7.40;99.90;;;;;;4971981;28;22886;-62
2022/03/12 06:53:25;;;;;;;10.40;6.47;;;7.50;99.90;;;;;;4986527;28;20621;-65
2022/03/12 06:55:53;;;;;;;8.90;6.57;;;7.60;99.90;;;;;;4983261;28;20206;-63
2022/03/12 06:58:21;;;;;;;10.43;6.90;;;7.60;99.90;;;;;;4996893;28;20230;-62
2022/03/12 07:00:48;;;;;;;10.47;6.63;;;7.90;99.90;;;;;;4996594;28;20194;-62
2022/03/12 07:03:15;;;;;;;10.00;6.60;;;8.00;99.90;;;;;;4987159;28;20210;-62
2022/03/12 07:05:42;;;;;;;10.17;6.20;;;7.90;99.90;;;;;;4983314;28;20212;-62
2022/03/12 07:08:12;;;;;;;13.37;6.70;;;7.80;99.90;;;;;;4997466;28;20232;-64
2022/03/12 07:10:41;;;;;;;12.13;6.63;;;7.80;99.90;;;;;;4997440;28;20304;-62
2022/03/12 07:13:08;;;;;;;11.33;7.17;;;7.80;99.90;;;;;;4987557;28;20772;-62
2022/03/12 07:15:35;;;;;;;9.50;6.87;;;7.80;99.90;;;;;;4982461;28;20190;-61
2022/03/12 07:18:04;;;;;;;9.67;7.03;;;7.80;99.90;;;;;;4985840;28;20202;-62
2022/03/12 07:20:32;;;;;;;8.07;6.23;;;7.90;99.90;;;;;;4983951;28;20213;-62
2022/03/12 07:23:00;;;;;;;12.53;8.07;;;8.00;99.90;;;;;;4983109;28;20222;-62
2022/03/12 07:25:28;;;;;;;11.60;6.23;;;8.40;99.90;;;;;;4998500;28;20296;-62
2022/03/12 07:27:55;;;;;;;8.93;6.60;;;9.30;99.90;;;;;;4972701;28;20284;-62
2022/03/12 07:30:24;;;;;;;11.33;7.40;;;10.50;99.90;;;;;;4998654;28;20677;-62
2022/03/12 07:32:52;;;;;;;8.83;6.20;;;11.40;99.90;;;;;;4973378;28;20265;-62
2022/03/12 07:35:21;;;;;;;13.47;7.43;;;15.60;99.90;;;;;;4994478;28;20195;-62
2022/03/12 07:37:49;;;;;;;8.83;6.30;;;18.20;99.90;;;;;;4986728;28;20226;-62
2022/03/12 07:40:19;;;;;;;9.25;6.85;;;19.30;99.90;;;;;;4983037;28;20682;-63
2022/03/12 07:42:48;;;;;;;11.07;7.13;;;20.10;99.90;;;;;;4990356;28;20221;-63
2022/03/12 07:45:16;;;;;;;7.55;5.85;;;21.20;99.90;;;;;;4986205;28;20727;-62
2022/03/12 07:47:43;;;;;;;9.80;6.30;;;21.20;99.90;;;;;;4982640;28;20202;-63
2022/03/12 07:50:11;;;;;;;7.38;6.43;;;22.00;99.90;;;;;;4984752;28;20652;-63
2022/03/12 07:52:38;;;;;;;7.10;6.28;;;22.20;99.90;;;;;;4982284;28;20205;-62
2022/03/12 07:55:07;;;;;;;8.18;6.70;;;20.70;99.90;;;;;;4980005;28;20212;-63
2022/03/12 07:57:34;;;;;;;8.30;5.90;;;21.20;99.90;;;;;;4997878;28;20213;-63
2022/03/12 08:00:03;;;;;;;7.10;6.35;;;22.60;99.90;;;;;;4996450;28;20194;-62
2022/03/12 08:02:40;;;;;;;7.78;6.30;;;22.00;99.90;;;;;;4982383;28;20225;-64
2022/03/12 08:05:07;;;;;;;10.27;6.43;;;20.50;99.90;;;;;;4987827;28;20225;-62
2022/03/12 08:07:34;;;;;;;7.35;6.40;;;20.70;99.90;;;;;;4980807;28;20209;-62
2022/03/12 08:10:01;;;;;;;7.90;6.18;;;22.20;99.90;;;;;;4988139;28;20556;-62
2022/03/12 08:12:31;;;;;;;8.43;6.97;;;19.00;99.90;;;;;;4986774;28;20217;-62
2022/03/12 08:15:03;;;;;;;8.73;6.80;;;15.80;99.90;;;;;;4979821;28;20213;-62
2022/03/12 08:17:31;;;;;;;12.70;7.13;;;14.60;99.90;;;;;;4998682;28;20218;-62
2022/03/12 08:19:58;;;;;;;10.18;7.03;;;13.60;99.90;;;;;;4984962;28;20653;-61
2022/03/12 08:22:27;;;;;;;8.07;6.55;;;13.10;99.90;;;;;;4982007;28;20732;-62
2022/03/12 08:24:56;;;;;;;7.60;6.80;;;13.00;99.90;;;;;;4985126;28;20198;-62
2022/03/12 08:27:25;;;;;;;11.23;7.40;;;12.50;99.90;;;;;;4984520;28;20205;-63
2022/03/12 08:29:51;;;;;;;9.30;7.03;;;12.80;99.90;;;;;;4998395;28;20194;-63
2022/03/12 08:32:19;;;;;;;9.70;6.70;;;13.20;99.90;;;;;;4981286;28;20245;-64
2022/03/12 08:34:48;;;;;;;7.97;6.37;;;12.70;99.90;;;;;;4983875;28;20189;-63
2022/03/12 08:37:15;;;;;;;7.87;6.33;;;12.50;99.90;;;;;;4980711;28;20566;-63
2022/03/12 08:39:44;;;;;;;9.50;7.07;;;12.30;99.90;;;;;;4981806;28;20213;-63
2022/03/12 08:42:11;;;;;;;9.33;6.77;;;12.70;99.90;;;;;;4988688;28;20257;-63
2022/03/12 08:44:39;;;;;;;7.77;6.23;;;12.50;99.90;;;;;;4996154;28;20209;-63
2022/03/12 08:47:07;;;;;;;8.30;6.53;;;12.00;99.90;;;;;;4986623;28;20202;-62
2022/03/12 08:49:35;;;;;;;10.43;7.30;;;11.90;99.90;;;;;;4997330;28;20301;-63
2022/03/12 08:52:05;;;;;;;11.50;7.30;;;12.00;99.90;;;;;;4996834;28;20222;-62
2022/03/12 08:54:35;;;;;;;8.80;6.60;;;12.00;99.90;;;;;;4981483;28;20197;-62
2022/03/12 08:57:05;;;;;;;10.30;6.73;;;12.40;99.90;;;;;;4998973;28;20212;-63
2022/03/12 08:59:34;;;;;;;9.77;7.00;;;12.50;99.90;;;;;;4998936;28;20205;-63
2022/03/12 09:02:01;;;;;;;9.53;6.13;;;12.60;99.90;;;;;;4987825;28;20249;-62
2022/03/12 09:04:31;;;;;;;11.93;6.97;;;13.00;99.90;;;;;;4999236;28;20206;-62
2022/03/12 09:06:58;;;;;;;9.87;6.83;;;16.90;99.90;;;;;;4988663;28;20213;-62
2022/03/12 09:09:25;;;;;;;13.10;6.37;;;19.10;99.90;;;;;;4987642;28;20662;-63
2022/03/12 09:11:56;;;;;;;9.07;6.10;;;20.20;99.90;;;;;;4982462;28;20197;-63
2022/03/12 09:14:23;;;;;;;8.75;6.32;;;18.80;99.90;;;;;;4987861;28;20556;-63
2022/03/12 09:16:50;;;;;;;8.95;6.68;;;18.30;99.90;;;;;;4991258;28;20237;-62
2022/03/12 09:19:17;;;;;;;9.75;6.40;;;17.80;99.90;;;;;;5002099;28;20221;-62
2022/03/12 09:21:44;;;;;;;8.00;5.90;;;20.30;99.90;;;;;;4987004;28;20194;-62
2022/03/12 09:24:11;;;;;;;7.68;6.15;;;21.70;99.90;;;;;;5000314;28;20240;-62
2022/03/12 09:26:39;;;;;;;9.70;6.10;;;21.60;99.90;;;;;;4992283;28;20206;-62
2022/03/12 09:29:06;;;;;;;8.13;6.20;;;21.30;99.90;;;;;;4993072;28;20201;-62
2022/03/12 09:31:33;;;;;;;10.25;6.80;;;20.10;99.90;;;;;;4991112;28;20202;-65
2022/03/12 09:34:02;;;;;;;6.95;6.25;;;19.70;99.90;;;;;;5001120;28;20300;-62
2022/03/12 09:36:31;;;;;;;7.20;6.30;;;20.60;99.90;;;;;;4991223;28;20285;-63
2022/03/12 09:39:02;;;;;;;8.57;6.28;;;21.00;99.90;;;;;;4983044;28;20202;-62
2022/03/12 09:41:33;;;;;;;10.00;6.07;;;21.50;99.90;;;;;;5001301;28;20708;-62
2022/03/12 09:44:01;;;;;;;7.38;6.57;;;20.60;99.90;;;;;;5001225;28;20222;-64
2022/03/12 09:46:28;;;;;;;7.00;6.18;;;19.80;99.90;;;;;;4984504;28;20205;-63
2022/03/12 09:48:55;;;;;;;8.68;6.80;;;19.90;99.90;;;;;;4976048;28;20293;-63
2022/03/12 09:51:25;;;;;;;7.32;6.35;;;20.00;99.90;;;;;;4975370;28;20209;-63
2022/03/12 09:53:55;;;;;;;7.32;5.72;;;19.00;99.90;;;;;;5000403;28;20302;-63
2022/03/12 09:56:22;;;;;;;9.98;6.25;;;19.20;99.90;;;;;;4983685;28;20193;-63
2022/03/12 09:58:49;;;;;;;9.15;6.55;;;20.00;99.90;;;;;;4988776;28;20240;-63
2022/03/12 10:01:17;;;;;;;10.98;7.18;;;19.40;99.90;;;;;;4974279;28;20249;-62
2022/03/12 10:03:44;;;;;;;9.18;6.80;;;19.80;99.90;;;;;;4968596;28;20209;-63
2022/03/12 10:06:11;;;;;;;9.52;5.68;;;20.80;99.90;;;;;;4984895;28;20237;-65
2022/03/12 10:08:45;;;;;;;10.02;6.60;;;21.00;99.90;;;;;;4991559;28;20203;-64
2022/03/12 10:11:13;;;;;;;10.07;6.03;;;20.90;99.90;;;;;;4999464;28;20201;-62
2022/03/12 10:13:40;;;;;;;7.72;6.28;;;23.70;99.90;;;;;;4983876;28;20221;-62
2022/03/12 10:16:07;;;;;;;8.30;6.88;;;20.60;99.90;;;;;;4989839;28;20272;-63
2022/03/12 10:18:36;;;;;;;8.13;6.35;;;20.80;99.90;;;;;;4987604;28;20217;-63
2022/03/12 10:21:03;;;;;;;8.70;6.93;;;22.20;99.90;;;;;;5000154;28;20304;-63
2022/03/12 10:23:31;;;;;;;9.15;6.55;;;21.10;99.90;;;;;;4983471;28;20710;-63
2022/03/12 10:26:00;;;;;;;8.70;6.53;;;21.80;99.90;;;;;;4997827;28;20915;-63
2022/03/12 10:28:29;;;;;;;9.65;6.78;;;21.80;99.90;;;;;;4997616;28;20226;-63
2022/03/12 10:30:56;;;;;;;8.57;6.47;;;21.10;99.90;;;;;;4981777;28;20264;-63
2022/03/12 10:33:28;;;;;;;9.15;6.90;;;20.80;99.90;;;;;;4996402;28;20214;-64
2022/03/12 10:36:10;;;;;;;10.15;7.22;;;22.30;99.90;;;;;;4985699;28;20257;-63
2022/03/12 10:38:39;;;;;;;7.55;6.30;;;22.80;99.90;;;;;;4997992;28;20637;-63
2022/03/12 10:41:07;;;;;;;9.15;7.18;;;23.10;99.90;;;;;;4989355;28;20747;-63
2022/03/12 10:43:46;;;;;;;7.68;6.13;;;22.20;99.90;;;;;;4982498;28;20272;-64
2022/03/12 10:46:28;;;;;;;7.50;6.70;;;21.10;99.90;;;;;;4998633;28;20190;-63
2022/03/12 10:49:00;;;;;;;9.68;7.03;;;22.40;99.90;;;;;;4997906;28;20190;-63
2022/03/12 10:51:36;;;;;;;10.65;7.07;;;22.30;99.90;;;;;;4980961;28;20236;-63
2022/03/12 10:54:10;;;;;;;7.68;6.70;;;19.90;99.90;;;;;;4984028;28;20248;-64
2022/03/12 10:56:48;;;;;;;8.07;6.68;;;21.30;99.90;;;;;;4979800;28;20296;-64
2022/03/12 10:59:26;;;;;;;9.48;6.88;;;21.90;99.90;;;;;;4987224;28;20202;-64
2022/03/12 11:02:04;;;;;;;7.93;6.18;;;23.00;99.90;;;;;;4981871;28;20253;-64
2022/03/12 11:04:34;;;;;;;7.03;6.25;;;23.60;99.90;;;;;;4981562;28;20194;-63
2022/03/12 11:07:21;;;;;;;7.60;6.03;;;23.20;99.90;;;;;;4984368;28;20216;-63
2022/03/12 11:09:48;;;;;;;8.20;5.93;;;21.40;99.90;;;;;;4999448;28;20252;-63
2022/03/12 11:12:38;;;;;;;10.57;6.90;;;21.50;99.90;;;;;;4986879;28;20198;-63
2022/03/12 11:15:15;;;;;;;9.32;7.10;;;21.20;99.90;;;;;;4998127;28;20232;-63
2022/03/12 11:17:46;;;;;;;9.40;6.18;;;21.20;99.90;;;;;;4983994;28;20213;-63
2022/03/12 11:20:21;;;;;;;7.00;6.05;;;23.00;99.90;;;;;;4989193;28;20203;-63
2022/03/12 11:23:08;;;;;;;9.40;6.47;;;23.80;99.90;;;;;;4987737;28;20249;-66
2022/03/12 11:25:54;;;;;;;8.63;6.65;;;21.50;99.90;;;;;;4965520;28;20206;-63
2022/03/12 11:28:21;;;;;;;6.78;6.07;;;19.70;99.90;;;;;;4980288;28;20598;-64
2022/03/12 11:30:48;;;;;;;8.00;5.80;;;21.50;99.90;;;;;;4998912;28;20235;-64
2022/03/12 11:33:15;;;;;;;8.63;7.15;;;23.00;99.90;;;;;;4982104;28;20228;-63
2022/03/12 11:35:46;;;;;;;7.35;6.32;;;21.90;99.90;;;;;;4986347;28;20290;-65
2022/03/12 11:38:18;;;;;;;10.35;6.13;;;23.50;99.90;;;;;;4994812;28;20598;-64
2022/03/12 11:41:02;;;;;;;8.90;5.80;;;23.20;99.90;;;;;;4994903;28;20712;-64
2022/03/12 11:43:31;;;;;;;6.50;5.78;;;23.70;99.90;;;;;;4996642;28;20244;-63
2022/03/12 11:46:04;;;;;;;8.85;5.88;;;26.00;99.90;;;;;;4985847;28;20268;-63
2022/03/12 11:48:32;;;;;;;7.80;5.95;;;24.80;99.90;;;;;;4999163;28;20240;-62
2022/03/12 11:51:02;;;;;;;6.78;6.07;;;23.80;99.90;;;;;;4996587;28;20225;-64
2022/03/12 11:53:39;;;;;;;6.53;5.20;;;23.80;99.90;;;;;;4989176;28;20244;-63
2022/03/12 11:56:16;;;;;;;9.10;6.18;;;23.20;99.90;;;;;;4981905;28;20198;-63
2022/03/12 11:58:47;;;;;;;7.65;6.53;;;23.40;99.90;;;;;;4981050;28;20202;-63
2022/03/12 12:01:20;;;;;;;6.93;5.97;;;21.50;99.90;;;;;;4980770;28;20202;-63
2022/03/12 12:03:50;;;;;;;10.40;6.18;;;22.10;99.90;;;;;;4972427;28;20661;-63
2022/03/12 12:06:17;;;;;;;7.35;5.88;;;23.10;99.90;;;;;;4995718;28;20260;-63
2022/03/12 12:08:46;;;;;;;10.35;8.00;;;21.60;99.90;;;;;;4988037;28;20823;-63
2022/03/12 12:11:14;;;;;;;7.25;6.50;;;23.20;99.90;;;;;;4983475;28;20200;-63
2022/03/12 12:13:44;;;;;;;8.85;6.40;;;24.20;99.90;;;;;;4982154;28;20213;-63
2022/03/12 12:16:12;;;;;;;7.10;6.40;;;25.00;99.90;;;;;;4985723;28;20224;-63
2022/03/12 12:18:39;;;;;;;8.60;6.38;;;24.50;99.90;;;;;;4978444;28;20202;-63
2022/03/12 12:21:06;;;;;;;9.27;6.03;;;23.70;99.90;;;;;;4991468;28;20314;-63
2022/03/12 12:23:33;;;;;;;11.43;6.40;;;20.30;99.90;;;;;;4981147;28;20265;-63
2022/03/12 12:26:08;;;;;;;7.10;6.15;;;20.60;99.90;;;;;;4997111;28;20628;-63
2022/03/12 12:28:53;;;;;;;10.65;6.50;;;20.30;99.90;;;;;;4996349;28;20470;-63
2022/03/12 12:31:24;;;;;;;6.50;5.43;;;20.90;99.90;;;;;;4981357;28;20198;-63
2022/03/12 12:33:54;;;;;;;5.85;5.25;;;21.70;99.90;;;;;;4980227;28;20237;-62
2022/03/12 12:36:24;;;;;;;7.43;5.53;;;19.60;99.90;;;;;;4982436;28;20297;-62
2022/03/12 12:39:03;;;;;;;9.82;5.57;;;19.70;99.90;;;;;;4985843;28;20647;-63
2022/03/12 12:41:52;;;;;;;11.20;5.50;;;18.60;99.90;;;;;;4982842;28;20237;-62
2022/03/12 12:44:36;;;;;;;7.43;6.10;;;19.00;99.90;;;;;;4982353;28;20243;-62
2022/03/12 12:47:04;;;;;;;6.38;5.70;;;19.60;99.90;;;;;;4983849;28;20328;-62
2022/03/12 12:49:43;;;;;;;6.15;5.55;;;19.90;99.90;;;;;;4979944;28;20269;-63
2022/03/12 12:52:10;;;;;;;8.27;5.55;;;19.80;99.90;;;;;;4996170;28;20189;-63
2022/03/12 12:55:01;;;;;;;9.35;6.05;;;19.30;99.90;;;;;;4982494;28;20561;-62
2022/03/12 12:57:47;;;;;;;7.18;5.82;;;18.40;99.90;;;;;;4979165;28;20208;-62
2022/03/12 13:00:19;;;;;;;7.15;6.38;;;18.20;99.90;;;;;;4972301;28;20197;-63
2022/03/12 13:02:49;;;;;;;7.95;6.40;;;18.40;99.90;;;;;;5009244;28;20245;-63
2022/03/12 13:05:16;;;;;;;8.40;5.65;;;17.60;99.90;;;;;;4986629;28;20551;-62